Time,TemperatureF,DewpointF,PressureIn,WindDirection,WindDirectionDegrees,WindSpeedMPH,WindSpeedGustMPH,Humidity,HourlyPrecipIn,Conditions,Clouds,dailyrainin,SoftwareType,DateUTC
2013-03-13 00:03:00,31.0,19.0,27.21,North,0,0.0,0.0,63,0.00,,,-99.99,,2013-03-13 05:03:00,
2013-03-13 00:08:00,31.0,19.0,27.21,SW,220,5.0,5.0,64,0.00,,,-99.99,,2013-03-13 05:08:00,
2013-03-13 00:13:00,31.0,19.0,27.21,SW,220,5.0,5.0,64,0.00,,,-99.99,,2013-03-13 05:13:00,
2013-03-13 00:23:00,30.0,19.0,27.21,SW,224,3.0,4.0,65,0.00,,,-99.99,,2013-03-13 05:23:00,
2013-03-13 00:28:00,30.0,19.0,27.21,SW,219,3.0,3.0,66,0.00,,,-99.99,,2013-03-13 05:28:00,
2013-03-13 00:33:00,30.0,21.0,27.21,SW,226,3.0,4.0,67,0.00,,,-99.99,,2013-03-13 05:33:00,
2013-03-13 00:38:00,29.0,19.0,27.21,SW,226,3.0,4.0,67,0.00,,,-99.99,,2013-03-13 05:38:00,
2013-03-13 00:43:00,29.0,19.0,27.21,SW,221,3.0,3.0,68,0.00,,,-99.99,,2013-03-13 05:43:00,
2013-03-13 00:48:00,30.0,21.0,27.21,SW,217,1.0,3.0,68,0.00,,,-99.99,,2013-03-13 05:48:00,
2013-03-13 00:53:00,30.0,21.0,27.21,North,0,0.0,0.0,68,0.00,,,-99.99,,2013-03-13 05:53:00,
2013-03-13 00:58:00,30.0,21.0,27.21,SW,214,0.0,2.0,67,0.00,,,-99.99,,2013-03-13 05:58:00,
2013-03-13 01:03:00,30.0,21.0,27.21,SSE,152,4.0,4.0,67,0.00,,,-99.99,,2013-03-13 06:03:00,
2013-03-13 01:08:00,30.0,21.0,27.20,SE,133,5.0,5.0,67,0.00,,,-99.99,,2013-03-13 06:08:00,
2013-03-13 01:13:00,31.0,21.0,27.20,SE,130,5.0,5.0,67,0.00,,,-99.99,,2013-03-13 06:13:00,
2013-03-13 01:18:00,31.0,21.0,27.20,SE,135,4.0,5.0,66,0.00,,,-99.99,,2013-03-13 06:18:00,
2013-03-13 01:23:00,31.0,21.0,27.20,SE,135,5.0,6.0,66,0.00,,,-99.99,,2013-03-13 06:23:00,
2013-03-13 01:28:00,32.0,21.0,27.20,SE,131,5.0,5.0,66,0.00,,,-99.99,,2013-03-13 06:28:00,
2013-03-13 01:33:00,32.0,21.0,27.20,SE,131,5.0,5.0,65,0.00,,,-99.99,,2013-03-13 06:33:00,
2013-03-13 01:38:00,32.0,21.0,27.20,SE,145,5.0,5.0,65,0.00,,,-99.99,,2013-03-13 06:38:00,
2013-03-13 01:43:00,32.0,21.0,27.20,SSE,152,7.0,7.0,65,0.00,,,-99.99,,2013-03-13 06:43:00,
2013-03-13 01:48:00,32.0,21.0,27.20,SSE,155,7.0,8.0,66,0.00,,,-99.99,,2013-03-13 06:48:00,
2013-03-13 01:53:00,31.0,21.0,27.20,SSE,152,8.0,8.0,67,0.00,,,-99.99,,2013-03-13 06:53:00,
2013-03-13 02:03:00,31.0,21.0,27.20,SSE,151,6.0,7.0,69,0.00,,,-99.99,,2013-03-13 07:03:00,
2013-03-13 02:08:00,31.0,23.0,27.20,SSE,152,6.0,6.0,70,0.00,,,-99.99,,2013-03-13 07:08:00,
2013-03-13 02:13:00,30.0,21.0,27.20,SSE,159,6.0,6.0,71,0.00,,,-99.99,,2013-03-13 07:13:00,
2013-03-13 02:18:00,30.0,21.0,27.20,SSE,161,7.0,7.0,71,0.00,,,-99.99,,2013-03-13 07:18:00,
2013-03-13 02:23:00,30.0,21.0,27.20,SSE,159,7.0,8.0,72,0.00,,,-99.99,,2013-03-13 07:23:00,
2013-03-13 02:28:00,30.0,21.0,27.20,SSE,165,7.0,7.0,72,0.00,,,-99.99,,2013-03-13 07:28:00,
2013-03-13 02:33:00,30.0,23.0,27.20,South,175,7.0,8.0,73,0.00,,,-99.99,,2013-03-13 07:33:00,
2013-03-13 02:43:00,30.0,23.0,27.20,SSE,166,7.0,8.0,73,0.00,,,-99.99,,2013-03-13 07:43:00,
2013-03-13 02:48:00,30.0,23.0,27.20,South,172,8.0,9.0,73,0.00,,,-99.99,,2013-03-13 07:48:00,
2013-03-13 02:53:00,29.0,21.0,27.20,South,169,8.0,9.0,73,0.00,,,-99.99,,2013-03-13 07:53:00,
2013-03-13 03:03:00,29.0,21.0,27.20,South,179,8.0,8.0,75,0.00,,,-99.99,,2013-03-13 08:03:00,
2013-03-13 03:08:00,28.0,21.0,27.20,South,180,9.0,10.0,76,0.00,,,-99.99,,2013-03-13 08:08:00,
2013-03-13 03:18:00,28.0,21.0,27.19,South,189,8.0,9.0,78,0.00,,,-99.99,,2013-03-13 08:18:00,
2013-03-13 03:23:00,28.0,21.0,27.20,South,182,7.0,8.0,78,0.00,,,-99.99,,2013-03-13 08:23:00,
2013-03-13 03:28:00,28.0,21.0,27.20,SSW,192,7.0,8.0,78,0.00,,,-99.99,,2013-03-13 08:28:00,
2013-03-13 03:33:00,28.0,21.0,27.20,SSW,195,8.0,9.0,78,0.00,,,-99.99,,2013-03-13 08:33:00,
2013-03-13 03:38:00,28.0,21.0,27.20,South,188,7.0,7.0,78,0.00,,,-99.99,,2013-03-13 08:38:00,
2013-03-13 03:43:00,28.0,21.0,27.20,SSW,202,7.0,8.0,78,0.00,,,-99.99,,2013-03-13 08:43:00,
2013-03-13 03:53:00,27.0,21.0,27.19,SSW,202,8.0,9.0,79,0.00,,,-99.99,,2013-03-13 08:53:00,
2013-03-13 03:58:00,27.0,21.0,27.19,SSW,196,8.0,8.0,80,0.00,,,-99.99,,2013-03-13 08:58:00,
2013-03-13 04:03:00,27.0,21.0,27.19,South,190,7.0,8.0,80,0.00,,,-99.99,,2013-03-13 09:03:00,
2013-03-13 04:08:00,26.0,21.0,27.19,SSW,195,7.0,7.0,81,0.00,,,-99.99,,2013-03-13 09:08:00,
2013-03-13 04:13:00,27.0,21.0,27.19,South,190,6.0,7.0,81,0.00,,,-99.99,,2013-03-13 09:13:00,
2013-03-13 04:18:00,27.0,21.0,27.19,South,190,8.0,9.0,81,0.00,,,-99.99,,2013-03-13 09:18:00,
2013-03-13 04:23:00,27.0,23.0,27.18,SSW,192,8.0,8.0,82,0.00,,,-99.99,,2013-03-13 09:23:00,
2013-03-13 04:28:00,28.0,23.0,27.19,South,186,7.0,8.0,81,0.00,,,-99.99,,2013-03-13 09:28:00,
2013-03-13 04:33:00,28.0,23.0,27.19,South,180,6.0,6.0,81,0.00,,,-99.99,,2013-03-13 09:33:00,
2013-03-13 04:38:00,29.0,25.0,27.18,South,182,6.0,7.0,81,0.00,,,-99.99,,2013-03-13 09:38:00,
2013-03-13 04:43:00,29.0,25.0,27.18,South,175,7.0,7.0,81,0.00,,,-99.99,,2013-03-13 09:43:00,
2013-03-13 04:48:00,29.0,25.0,27.18,South,169,7.0,8.0,81,0.00,,,-99.99,,2013-03-13 09:48:00,
2013-03-13 04:53:00,30.0,25.0,27.17,South,172,7.0,9.0,80,0.00,,,-99.99,,2013-03-13 09:53:00,
2013-03-13 04:58:00,30.0,25.0,27.17,South,171,7.0,8.0,80,0.00,,,-99.99,,2013-03-13 09:58:00,
2013-03-13 05:03:00,30.0,25.0,27.17,South,176,8.0,10.0,80,0.00,,,-99.99,,2013-03-13 10:03:00,
2013-03-13 05:08:00,30.0,25.0,27.17,SSE,168,9.0,11.0,80,0.00,,,-99.99,,2013-03-13 10:08:00,
2013-03-13 05:13:00,31.0,25.0,27.17,South,180,9.0,11.0,79,0.00,,,-99.99,,2013-03-13 10:13:00,
2013-03-13 05:18:00,31.0,25.0,27.17,SSE,166,9.0,11.0,78,0.00,,,-99.99,,2013-03-13 10:18:00,
2013-03-13 05:23:00,30.0,25.0,27.17,South,179,9.0,10.0,78,0.00,,,-99.99,,2013-03-13 10:23:00,
2013-03-13 05:28:00,30.0,25.0,27.17,South,185,9.0,11.0,78,0.00,,,-99.99,,2013-03-13 10:28:00,
2013-03-13 05:33:00,30.0,25.0,27.17,SSW,192,8.0,11.0,78,0.00,,,-99.99,,2013-03-13 10:33:00,
2013-03-13 05:38:00,30.0,25.0,27.17,South,186,7.0,10.0,78,0.00,,,-99.99,,2013-03-13 10:38:00,
2013-03-13 05:43:00,29.0,23.0,27.17,South,179,7.0,8.0,78,0.00,,,-99.99,,2013-03-13 10:43:00,
2013-03-13 05:48:00,29.0,23.0,27.17,South,180,8.0,9.0,78,0.00,,,-99.99,,2013-03-13 10:48:00,
2013-03-13 05:53:00,29.0,23.0,27.17,South,178,9.0,9.0,79,0.00,,,-99.99,,2013-03-13 10:53:00,
2013-03-13 05:58:00,29.0,23.0,27.17,South,171,8.0,10.0,79,0.00,,,-99.99,,2013-03-13 10:58:00,
2013-03-13 06:03:00,28.0,23.0,27.17,South,176,8.0,9.0,79,0.00,,,-99.99,,2013-03-13 11:03:00,
2013-03-13 06:08:00,28.0,23.0,27.16,SSW,192,8.0,9.0,80,0.00,,,-99.99,,2013-03-13 11:08:00,
2013-03-13 06:13:00,28.0,23.0,27.16,South,182,10.0,12.0,80,0.00,,,-99.99,,2013-03-13 11:13:00,
2013-03-13 06:18:00,28.0,23.0,27.16,South,190,8.0,10.0,80,0.00,,,-99.99,,2013-03-13 11:18:00,
2013-03-13 06:23:00,28.0,23.0,27.17,South,190,9.0,11.0,80,0.00,,,-99.99,,2013-03-13 11:23:00,
2013-03-13 06:28:00,28.0,23.0,27.17,South,186,8.0,9.0,81,0.00,,,-99.99,,2013-03-13 11:28:00,
2013-03-13 06:33:00,28.0,23.0,27.17,South,188,7.0,8.0,80,0.00,,,-99.99,,2013-03-13 11:33:00,
2013-03-13 06:38:00,28.0,23.0,27.17,SSW,195,5.0,6.0,81,0.00,,,-99.99,,2013-03-13 11:38:00,
2013-03-13 06:43:00,28.0,23.0,27.18,South,186,6.0,7.0,81,0.00,,,-99.99,,2013-03-13 11:43:00,
2013-03-13 06:48:00,27.0,21.0,27.18,South,169,7.0,8.0,81,0.00,,,-99.99,,2013-03-13 11:48:00,
2013-03-13 06:53:00,27.0,21.0,27.18,South,185,7.0,8.0,81,0.00,,,-99.99,,2013-03-13 11:53:00,
2013-03-13 06:58:00,27.0,23.0,27.18,South,183,6.0,7.0,82,0.00,,,-99.99,,2013-03-13 11:58:00,
2013-03-13 07:03:00,27.0,23.0,27.18,South,190,6.0,7.0,82,0.00,,,-99.99,,2013-03-13 12:03:00,
2013-03-13 07:08:00,27.0,23.0,27.17,South,188,7.0,8.0,82,0.00,,,-99.99,,2013-03-13 12:08:00,
2013-03-13 07:13:00,27.0,23.0,27.18,South,188,8.0,9.0,82,0.00,,,-99.99,,2013-03-13 12:13:00,
2013-03-13 07:18:00,27.0,23.0,27.18,South,186,8.0,9.0,82,0.00,,,-99.99,,2013-03-13 12:18:00,
2013-03-13 07:23:00,27.0,23.0,27.18,South,190,8.0,9.0,82,0.00,,,-99.99,,2013-03-13 12:23:00,
2013-03-13 07:28:00,27.0,23.0,27.18,SSW,192,8.0,9.0,82,0.00,,,-99.99,,2013-03-13 12:28:00,
2013-03-13 07:33:00,27.0,23.0,27.18,South,189,8.0,9.0,82,0.00,,,-99.99,,2013-03-13 12:33:00,
2013-03-13 07:38:00,27.0,23.0,27.18,SSW,193,8.0,9.0,82,0.00,,,-99.99,,2013-03-13 12:38:00,
2013-03-13 07:43:00,27.0,23.0,27.17,South,189,9.0,10.0,82,0.00,,,-99.99,,2013-03-13 12:43:00,
2013-03-13 07:48:00,27.0,23.0,27.17,SSW,193,8.0,9.0,82,0.00,,,-99.99,,2013-03-13 12:48:00,
2013-03-13 07:53:00,27.0,23.0,27.17,SSW,192,8.0,8.0,82,0.00,,,-99.99,,2013-03-13 12:53:00,
2013-03-13 08:03:00,26.0,21.0,27.17,South,189,8.0,9.0,83,0.00,,,-99.99,,2013-03-13 13:03:00,
2013-03-13 08:08:00,25.0,21.0,27.17,SSW,192,7.0,8.0,84,0.00,,,-99.99,,2013-03-13 13:08:00,
2013-03-13 08:13:00,25.0,21.0,27.17,SSW,197,8.0,10.0,84,0.00,,,-99.99,,2013-03-13 13:13:00,
2013-03-13 08:18:00,25.0,21.0,27.17,SSW,192,9.0,10.0,85,0.00,,,-99.99,,2013-03-13 13:18:00,
2013-03-13 08:23:00,26.0,23.0,27.17,SSW,199,8.0,9.0,85,0.00,,,-99.99,,2013-03-13 13:23:00,
2013-03-13 08:28:00,26.0,23.0,27.17,SSW,196,9.0,10.0,85,0.00,,,-99.99,,2013-03-13 13:28:00,
2013-03-13 08:33:00,27.0,23.0,27.17,SSW,199,9.0,10.0,86,0.00,,,-99.99,,2013-03-13 13:33:00,
2013-03-13 08:38:00,28.0,25.0,27.17,SSW,193,8.0,9.0,86,0.00,,,-99.99,,2013-03-13 13:38:00,
2013-03-13 08:43:00,29.0,25.0,27.17,SSW,195,8.0,9.0,85,0.00,,,-99.99,,2013-03-13 13:43:00,
2013-03-13 08:48:00,29.0,25.0,27.17,SSW,192,8.0,9.0,85,0.00,,,-99.99,,2013-03-13 13:48:00,
2013-03-13 08:53:00,30.0,27.0,27.17,South,185,9.0,11.0,84,0.00,,,-99.99,,2013-03-13 13:53:00,
2013-03-13 08:58:00,31.0,27.0,27.17,SSW,196,11.0,12.0,83,0.00,,,-99.99,,2013-03-13 13:58:00,
2013-03-13 09:03:00,31.0,27.0,27.17,SSW,197,10.0,12.0,82,0.00,,,-99.99,,2013-03-13 14:03:00,
2013-03-13 09:08:00,31.0,27.0,27.17,SSW,197,10.0,12.0,82,0.00,,,-99.99,,2013-03-13 14:08:00,
2013-03-13 09:13:00,32.0,27.0,27.17,South,190,10.0,12.0,81,0.00,,,-99.99,,2013-03-13 14:13:00,
2013-03-13 09:18:00,32.0,27.0,27.18,South,186,11.0,13.0,80,0.00,,,-99.99,,2013-03-13 14:18:00,
2013-03-13 09:23:00,33.0,27.0,27.17,South,178,11.0,13.0,79,0.00,,,-99.99,,2013-03-13 14:23:00,
2013-03-13 09:28:00,34.0,28.0,27.17,South,175,12.0,13.0,78,0.00,,,-99.99,,2013-03-13 14:28:00,
2013-03-13 09:33:00,34.0,28.0,27.17,South,183,13.0,16.0,77,0.00,,,-99.99,,2013-03-13 14:33:00,
2013-03-13 09:38:00,34.0,27.0,27.17,South,183,13.0,15.0,76,0.00,,,-99.99,,2013-03-13 14:38:00,
2013-03-13 09:48:00,35.0,28.0,27.17,South,173,12.0,14.0,75,0.00,,,-99.99,,2013-03-13 14:48:00,
2013-03-13 09:53:00,36.0,28.0,27.17,South,185,13.0,14.0,75,0.00,,,-99.99,,2013-03-13 14:53:00,
2013-03-13 09:58:00,36.0,28.0,27.16,South,172,12.0,14.0,74,0.00,,,-99.99,,2013-03-13 14:58:00,
2013-03-13 10:03:00,37.0,28.0,27.17,South,179,13.0,14.0,73,0.00,,,-99.99,,2013-03-13 15:03:00,
2013-03-13 10:08:00,37.0,28.0,27.17,South,178,12.0,14.0,73,0.00,,,-99.99,,2013-03-13 15:08:00,
2013-03-13 10:13:00,37.0,28.0,27.17,South,182,12.0,13.0,72,0.00,,,-99.99,,2013-03-13 15:13:00,
2013-03-13 10:18:00,38.0,30.0,27.16,SSE,168,12.0,15.0,72,0.00,,,-99.99,,2013-03-13 15:18:00,
2013-03-13 10:23:00,39.0,30.0,27.16,South,175,12.0,14.0,71,0.00,,,-99.99,,2013-03-13 15:23:00,
2013-03-13 10:28:00,39.0,30.0,27.16,South,186,12.0,14.0,71,0.00,,,-99.99,,2013-03-13 15:28:00,
2013-03-13 10:33:00,40.0,30.0,27.16,South,180,13.0,15.0,70,0.00,,,-99.99,,2013-03-13 15:33:00,
2013-03-13 10:38:00,40.0,30.0,27.16,South,189,13.0,15.0,69,0.00,,,-99.99,,2013-03-13 15:38:00,
2013-03-13 10:43:00,41.0,32.0,27.15,SSW,192,11.0,14.0,70,0.00,,,-99.99,,2013-03-13 15:43:00,
2013-03-13 10:53:00,42.0,32.0,27.15,SSW,195,13.0,15.0,68,0.00,,,-99.99,,2013-03-13 15:53:00,
2013-03-13 10:58:00,42.0,32.0,27.15,SSW,192,12.0,14.0,68,0.00,,,-99.99,,2013-03-13 15:58:00,
2013-03-13 11:03:00,43.0,32.0,27.15,SSW,192,11.0,15.0,67,0.00,,,-99.99,,2013-03-13 16:03:00,
2013-03-13 11:08:00,43.0,32.0,27.15,SSW,199,10.0,13.0,67,0.00,,,-99.99,,2013-03-13 16:08:00,
2013-03-13 11:13:00,43.0,32.0,27.15,SSW,204,10.0,13.0,67,0.00,,,-99.99,,2013-03-13 16:13:00,
2013-03-13 11:18:00,44.0,34.0,27.15,SW,217,10.0,12.0,66,0.00,,,-99.99,,2013-03-13 16:18:00,
2013-03-13 11:23:00,45.0,36.0,27.15,SW,214,9.0,13.0,67,0.00,,,-99.99,,2013-03-13 16:23:00,
2013-03-13 11:28:00,45.0,34.0,27.15,SW,234,9.0,12.0,66,0.00,,,-99.99,,2013-03-13 16:28:00,
2013-03-13 11:33:00,46.0,36.0,27.15,SSW,196,9.0,12.0,65,0.00,,,-99.99,,2013-03-13 16:33:00,
2013-03-13 11:38:00,46.0,36.0,27.15,WSW,245,7.0,10.0,66,0.00,,,-99.99,,2013-03-13 16:38:00,
2013-03-13 11:48:00,46.0,36.0,27.14,SW,233,7.0,10.0,65,0.00,,,-99.99,,2013-03-13 16:48:00,
2013-03-13 11:53:00,47.0,36.0,27.14,WSW,241,8.0,12.0,65,0.00,,,-99.99,,2013-03-13 16:53:00,
2013-03-13 11:58:00,47.0,36.0,27.14,SW,223,8.0,10.0,64,0.00,,,-99.99,,2013-03-13 16:58:00,
2013-03-13 12:03:00,48.0,36.0,27.14,SSW,200,6.0,8.0,64,0.00,,,-99.99,,2013-03-13 17:03:00,
2013-03-13 12:08:00,49.0,37.0,27.14,SSW,193,7.0,9.0,64,0.00,,,-99.99,,2013-03-13 17:08:00,
2013-03-13 12:13:00,50.0,37.0,27.14,SSW,212,7.0,9.0,63,0.00,,,-99.99,,2013-03-13 17:13:00,
2013-03-13 12:18:00,51.0,39.0,27.14,WSW,238,6.0,7.0,63,0.00,,,-99.99,,2013-03-13 17:18:00,
2013-03-13 12:23:00,51.0,37.0,27.14,WSW,238,6.0,8.0,61,0.00,,,-99.99,,2013-03-13 17:23:00,
2013-03-13 12:28:00,51.0,39.0,27.14,WSW,248,6.0,8.0,62,0.00,,,-99.99,,2013-03-13 17:28:00,
2013-03-13 12:33:00,51.0,37.0,27.14,West,279,6.0,8.0,61,0.00,,,-99.99,,2013-03-13 17:33:00,
2013-03-13 12:38:00,52.0,39.0,27.14,WNW,299,5.0,7.0,61,0.00,,,-99.99,,2013-03-13 17:38:00,
2013-03-13 12:43:00,52.0,39.0,27.14,WNW,293,7.0,9.0,60,0.00,,,-99.99,,2013-03-13 17:43:00,
2013-03-13 12:48:00,53.0,37.0,27.14,NW,320,6.0,8.0,57,0.00,,,-99.99,,2013-03-13 17:48:00,
2013-03-13 12:53:00,53.0,37.0,27.14,WNW,298,5.0,8.0,57,0.00,,,-99.99,,2013-03-13 17:53:00,
2013-03-13 13:03:00,54.0,39.0,27.13,WNW,283,7.0,10.0,57,0.00,,,-99.99,,2013-03-13 18:03:00,
2013-03-13 13:08:00,54.0,39.0,27.13,WNW,295,0.0,2.0,58,0.00,,,-99.99,,2013-03-13 18:08:00,
2013-03-13 13:18:00,55.0,39.0,27.13,NW,320,6.0,8.0,55,0.00,,,-99.99,,2013-03-13 18:18:00,
2013-03-13 13:23:00,56.0,41.0,27.13,North,0,0.0,0.0,57,0.00,,,-99.99,,2013-03-13 18:23:00,
2013-03-13 13:33:00,56.0,41.0,27.12,West,276,1.0,4.0,56,0.00,,,-99.99,,2013-03-13 18:33:00,
2013-03-13 13:38:00,57.0,41.0,27.12,WNW,282,2.0,5.0,56,0.00,,,-99.99,,2013-03-13 18:38:00,
2013-03-13 13:48:00,58.0,41.0,27.12,West,275,5.0,8.0,54,0.00,,,-99.99,,2013-03-13 18:48:00,
2013-03-13 13:58:00,59.0,39.0,27.12,NW,326,7.0,9.0,49,0.00,,,-99.99,,2013-03-13 18:58:00,
2013-03-13 14:03:00,59.0,39.0,27.11,NW,317,7.0,8.0,49,0.00,,,-99.99,,2013-03-13 19:03:00,
2013-03-13 14:08:00,59.0,41.0,27.11,NW,314,6.0,8.0,50,0.00,,,-99.99,,2013-03-13 19:08:00,
2013-03-13 14:13:00,60.0,43.0,27.11,NW,312,9.0,10.0,52,0.00,,,-99.99,,2013-03-13 19:13:00,
2013-03-13 14:18:00,60.0,41.0,27.11,WNW,299,6.0,9.0,49,0.00,,,-99.99,,2013-03-13 19:18:00,
2013-03-13 14:23:00,60.0,39.0,27.10,North,350,7.0,8.0,47,0.00,,,-99.99,,2013-03-13 19:23:00,
2013-03-13 14:28:00,60.0,39.0,27.10,NW,306,9.0,11.0,45,0.00,,,-99.99,,2013-03-13 19:28:00,
2013-03-13 14:33:00,60.0,39.0,27.10,NNW,344,7.0,9.0,47,0.00,,,-99.99,,2013-03-13 19:33:00,
2013-03-13 14:38:00,61.0,39.0,27.10,NW,313,8.0,11.0,46,0.00,,,-99.99,,2013-03-13 19:38:00,
2013-03-13 14:43:00,61.0,39.0,27.10,West,274,8.0,11.0,45,0.00,,,-99.99,,2013-03-13 19:43:00,
2013-03-13 14:48:00,61.0,39.0,27.10,NNW,337,6.0,10.0,46,0.00,,,-99.99,,2013-03-13 19:48:00,
2013-03-13 14:53:00,62.0,41.0,27.09,North,355,7.0,9.0,46,0.00,,,-99.99,,2013-03-13 19:53:00,
2013-03-13 14:58:00,62.0,39.0,27.09,NNW,340,8.0,10.0,43,0.00,,,-99.99,,2013-03-13 19:58:00,
2013-03-13 15:03:00,62.0,41.0,27.09,NNW,338,2.0,5.0,47,0.00,,,-99.99,,2013-03-13 20:03:00,
2013-03-13 15:08:00,62.0,43.0,27.09,NW,323,2.0,5.0,48,0.00,,,-99.99,,2013-03-13 20:08:00,
2013-03-13 15:13:00,62.0,41.0,27.09,NW,321,8.0,10.0,46,0.00,,,-99.99,,2013-03-13 20:13:00,
2013-03-13 15:18:00,62.0,41.0,27.09,North,3,7.0,10.0,45,0.00,,,-99.99,,2013-03-13 20:18:00,
2013-03-13 15:23:00,63.0,41.0,27.09,NNW,327,8.0,9.0,43,0.00,,,-99.99,,2013-03-13 20:23:00,
2013-03-13 15:28:00,63.0,41.0,27.08,North,354,6.0,8.0,45,0.00,,,-99.99,,2013-03-13 20:28:00,
2013-03-13 15:33:00,63.0,41.0,27.08,NNW,347,10.0,13.0,45,0.00,,,-99.99,,2013-03-13 20:33:00,
2013-03-13 15:38:00,64.0,41.0,27.08,North,1,9.0,11.0,43,0.00,,,-99.99,,2013-03-13 20:38:00,
2013-03-13 15:43:00,64.0,41.0,27.08,NW,310,11.0,13.0,43,0.00,,,-99.99,,2013-03-13 20:43:00,
2013-03-13 15:48:00,64.0,41.0,27.07,NNW,336,9.0,12.0,44,0.00,,,-99.99,,2013-03-13 20:48:00,
2013-03-13 15:53:00,64.0,41.0,27.07,NW,314,10.0,12.0,42,0.00,,,-99.99,,2013-03-13 20:53:00,
2013-03-13 15:58:00,64.0,41.0,27.07,NW,316,4.0,6.0,42,0.00,,,-99.99,,2013-03-13 20:58:00,
2013-03-13 16:03:00,65.0,41.0,27.07,North,1,8.0,10.0,41,0.00,,,-99.99,,2013-03-13 21:03:00,
2013-03-13 16:08:00,65.0,41.0,27.07,NNW,334,7.0,9.0,41,0.00,,,-99.99,,2013-03-13 21:08:00,
2013-03-13 16:13:00,65.0,39.0,27.07,North,3,10.0,11.0,40,0.00,,,-99.99,,2013-03-13 21:13:00,
2013-03-13 16:23:00,65.0,39.0,27.06,WNW,302,9.0,11.0,39,0.00,,,-99.99,,2013-03-13 21:23:00,
2013-03-13 16:28:00,65.0,39.0,27.06,WNW,298,10.0,12.0,39,0.00,,,-99.99,,2013-03-13 21:28:00,
2013-03-13 16:38:00,66.0,39.0,27.06,NW,323,10.0,11.0,38,0.00,,,-99.99,,2013-03-13 21:38:00,
2013-03-13 16:43:00,66.0,39.0,27.06,NW,316,8.0,10.0,37,0.00,,,-99.99,,2013-03-13 21:43:00,
2013-03-13 16:48:00,66.0,39.0,27.06,WNW,293,7.0,8.0,38,0.00,,,-99.99,,2013-03-13 21:48:00,
2013-03-13 16:53:00,66.0,37.0,27.06,NW,305,9.0,11.0,36,0.00,,,-99.99,,2013-03-13 21:53:00,
2013-03-13 16:58:00,66.0,37.0,27.06,NNW,333,7.0,8.0,36,0.00,,,-99.99,,2013-03-13 21:58:00,
2013-03-13 17:03:00,66.0,39.0,27.05,NW,319,3.0,7.0,37,0.00,,,-99.99,,2013-03-13 22:03:00,
2013-03-13 17:08:00,66.0,41.0,27.05,NNW,345,2.0,4.0,40,0.00,,,-99.99,,2013-03-13 22:08:00,
2013-03-13 17:13:00,66.0,37.0,27.05,NW,317,8.0,11.0,35,0.00,,,-99.99,,2013-03-13 22:13:00,
2013-03-13 17:18:00,66.0,37.0,27.05,WNW,293,6.0,8.0,36,0.00,,,-99.99,,2013-03-13 22:18:00,
2013-03-13 17:23:00,66.0,37.0,27.05,NW,306,9.0,10.0,35,0.00,,,-99.99,,2013-03-13 22:23:00,
2013-03-13 17:28:00,67.0,41.0,27.05,WNW,296,8.0,10.0,38,0.00,,,-99.99,,2013-03-13 22:28:00,
2013-03-13 17:33:00,67.0,37.0,27.05,West,271,2.0,5.0,34,0.00,,,-99.99,,2013-03-13 22:33:00,
2013-03-13 17:38:00,67.0,37.0,27.05,NW,317,8.0,9.0,33,0.00,,,-99.99,,2013-03-13 22:38:00,
2013-03-13 17:43:00,66.0,36.0,27.05,NW,309,6.0,7.0,33,0.00,,,-99.99,,2013-03-13 22:43:00,
2013-03-13 17:48:00,66.0,36.0,27.05,NW,312,8.0,9.0,33,0.00,,,-99.99,,2013-03-13 22:48:00,
2013-03-13 17:53:00,66.0,36.0,27.05,NNW,329,7.0,8.0,33,0.00,,,-99.99,,2013-03-13 22:53:00,
2013-03-13 17:58:00,65.0,36.0,27.05,WNW,302,5.0,6.0,33,0.00,,,-99.99,,2013-03-13 22:58:00,
2013-03-13 18:03:00,65.0,37.0,27.05,WNW,292,8.0,10.0,35,0.00,,,-99.99,,2013-03-13 23:03:00,
2013-03-13 18:08:00,65.0,37.0,27.05,WNW,288,7.0,9.0,36,0.00,,,-99.99,,2013-03-13 23:08:00,
2013-03-13 18:13:00,65.0,37.0,27.05,WNW,296,9.0,11.0,35,0.00,,,-99.99,,2013-03-13 23:13:00,
2013-03-13 18:18:00,65.0,37.0,27.05,WNW,283,6.0,8.0,36,0.00,,,-99.99,,2013-03-13 23:18:00,
2013-03-13 18:23:00,65.0,37.0,27.05,WNW,286,6.0,9.0,36,0.00,,,-99.99,,2013-03-13 23:23:00,
2013-03-13 18:28:00,65.0,37.0,27.05,West,276,6.0,8.0,37,0.00,,,-99.99,,2013-03-13 23:28:00,
2013-03-13 18:33:00,64.0,37.0,27.05,WNW,293,4.0,5.0,38,0.00,,,-99.99,,2013-03-13 23:33:00,
2013-03-13 18:38:00,64.0,37.0,27.05,West,268,4.0,7.0,37,0.00,,,-99.99,,2013-03-13 23:38:00,
2013-03-13 18:43:00,64.0,37.0,27.05,North,0,0.0,0.0,38,0.00,,,-99.99,,2013-03-13 23:43:00,
2013-03-13 18:48:00,64.0,39.0,27.05,North,0,0.0,0.0,39,0.00,,,-99.99,,2013-03-13 23:48:00,
2013-03-13 18:53:00,64.0,39.0,27.05,North,0,0.0,0.0,39,0.00,,,-99.99,,2013-03-13 23:53:00,
2013-03-13 18:58:00,64.0,39.0,27.05,North,0,0.0,0.0,39,0.00,,,-99.99,,2013-03-13 23:58:00,
2013-03-13 19:03:00,64.0,39.0,27.05,North,0,0.0,0.0,39,0.00,,,-99.99,,2013-03-14 00:03:00,
2013-03-13 19:08:00,64.0,39.0,27.05,North,0,0.0,0.0,39,0.00,,,-99.99,,2013-03-14 00:08:00,
2013-03-13 19:13:00,63.0,37.0,27.05,North,0,0.0,0.0,39,0.00,,,-99.99,,2013-03-14 00:13:00,
2013-03-13 19:18:00,63.0,39.0,27.04,North,0,0.0,0.0,41,0.00,,,-99.99,,2013-03-14 00:18:00,
2013-03-13 19:23:00,63.0,39.0,27.04,North,0,0.0,0.0,42,0.00,,,-99.99,,2013-03-14 00:23:00,
2013-03-13 19:28:00,62.0,39.0,27.04,North,0,0.0,0.0,42,0.00,,,-99.99,,2013-03-14 00:28:00,
2013-03-13 19:33:00,62.0,39.0,27.04,North,0,0.0,0.0,42,0.00,,,-99.99,,2013-03-14 00:33:00,
2013-03-13 19:38:00,61.0,37.0,27.04,North,0,0.0,0.0,42,0.00,,,-99.99,,2013-03-14 00:38:00,
2013-03-13 19:43:00,60.0,37.0,27.04,North,0,0.0,0.0,42,0.00,,,-99.99,,2013-03-14 00:43:00,
2013-03-13 19:48:00,60.0,37.0,27.04,North,0,0.0,0.0,43,0.00,,,-99.99,,2013-03-14 00:48:00,
2013-03-13 19:53:00,59.0,37.0,27.04,North,0,0.0,0.0,43,0.00,,,-99.99,,2013-03-14 00:53:00,
2013-03-13 19:58:00,59.0,37.0,27.04,North,0,0.0,0.0,44,0.00,,,-99.99,,2013-03-14 00:58:00,
2013-03-13 20:03:00,59.0,37.0,27.04,North,0,0.0,0.0,44,0.00,,,-99.99,,2013-03-14 01:03:00,
2013-03-13 20:08:00,58.0,36.0,27.04,North,0,0.0,0.0,44,0.00,,,-99.99,,2013-03-14 01:08:00,
2013-03-13 20:13:00,58.0,37.0,27.04,SE,144,0.0,5.0,45,0.00,,,-99.99,,2013-03-14 01:13:00,
2013-03-13 20:23:00,56.0,37.0,27.04,SSE,148,6.0,6.0,48,0.00,,,-99.99,,2013-03-14 01:23:00,
2013-03-13 20:33:00,54.0,36.0,27.04,SSE,164,7.0,7.0,48,0.00,,,-99.99,,2013-03-14 01:33:00,
2013-03-13 20:38:00,53.0,36.0,27.04,SSE,161,8.0,8.0,50,0.00,,,-99.99,,2013-03-14 01:38:00,
2013-03-13 20:43:00,53.0,36.0,27.04,SSE,164,9.0,9.0,51,0.00,,,-99.99,,2013-03-14 01:43:00,
2013-03-13 20:48:00,52.0,36.0,27.04,SSE,165,8.0,8.0,53,0.00,,,-99.99,,2013-03-14 01:48:00,
2013-03-13 20:53:00,51.0,34.0,27.03,South,171,9.0,9.0,53,0.00,,,-99.99,,2013-03-14 01:53:00,
2013-03-13 20:58:00,51.0,36.0,27.03,South,169,9.0,9.0,54,0.00,,,-99.99,,2013-03-14 01:58:00,
2013-03-13 21:03:00,50.0,36.0,27.04,South,173,9.0,10.0,56,0.00,,,-99.99,,2013-03-14 02:03:00,
2013-03-13 21:08:00,50.0,36.0,27.04,South,175,8.0,8.0,56,0.00,,,-99.99,,2013-03-14 02:08:00,
2013-03-13 21:13:00,50.0,36.0,27.04,South,175,7.0,8.0,56,0.00,,,-99.99,,2013-03-14 02:13:00,
2013-03-13 21:18:00,50.0,36.0,27.04,South,179,7.0,8.0,57,0.00,,,-99.99,,2013-03-14 02:18:00,
2013-03-13 21:23:00,50.0,36.0,27.04,South,180,7.0,8.0,57,0.00,,,-99.99,,2013-03-14 02:23:00,
2013-03-13 21:28:00,50.0,36.0,27.04,South,182,7.0,8.0,58,0.00,,,-99.99,,2013-03-14 02:28:00,
2013-03-13 21:33:00,50.0,36.0,27.04,South,186,7.0,8.0,58,0.00,,,-99.99,,2013-03-14 02:33:00,
2013-03-13 21:38:00,50.0,36.0,27.04,South,188,6.0,7.0,59,0.00,,,-99.99,,2013-03-14 02:38:00,
2013-03-13 21:43:00,49.0,36.0,27.04,SSW,195,6.0,6.0,58,0.00,,,-99.99,,2013-03-14 02:43:00,
2013-03-13 21:48:00,49.0,36.0,27.04,SSW,196,6.0,6.0,59,0.00,,,-99.99,,2013-03-14 02:48:00,
2013-03-13 21:53:00,49.0,36.0,27.04,SSW,202,5.0,6.0,60,0.00,,,-99.99,,2013-03-14 02:53:00,
2013-03-13 21:58:00,49.0,36.0,27.04,SSW,200,5.0,6.0,60,0.00,,,-99.99,,2013-03-14 02:58:00,
2013-03-13 22:03:00,49.0,36.0,27.04,SSW,203,5.0,6.0,61,0.00,,,-99.99,,2013-03-14 03:03:00,
2013-03-13 22:08:00,48.0,36.0,27.04,SSW,200,5.0,5.0,61,0.00,,,-99.99,,2013-03-14 03:08:00,
2013-03-13 22:13:00,48.0,36.0,27.04,SSW,197,5.0,7.0,62,0.00,,,-99.99,,2013-03-14 03:13:00,
2013-03-13 22:18:00,48.0,36.0,27.04,SSW,203,4.0,5.0,62,0.00,,,-99.99,,2013-03-14 03:18:00,
2013-03-13 22:23:00,48.0,36.0,27.04,SSW,209,5.0,5.0,63,0.00,,,-99.99,,2013-03-14 03:23:00,
2013-03-13 22:33:00,48.0,36.0,27.04,SSW,213,4.0,5.0,64,0.00,,,-99.99,,2013-03-14 03:33:00,
2013-03-13 22:38:00,48.0,36.0,27.04,SW,214,5.0,6.0,64,0.00,,,-99.99,,2013-03-14 03:38:00,
2013-03-13 22:43:00,48.0,36.0,27.04,SSW,210,5.0,6.0,64,0.00,,,-99.99,,2013-03-14 03:43:00,
2013-03-13 22:48:00,47.0,36.0,27.04,SW,219,5.0,6.0,65,0.00,,,-99.99,,2013-03-14 03:48:00,
2013-03-13 22:53:00,47.0,36.0,27.04,SW,216,5.0,6.0,65,0.00,,,-99.99,,2013-03-14 03:53:00,
2013-03-13 22:58:00,47.0,36.0,27.04,SW,219,6.0,7.0,66,0.00,,,-99.99,,2013-03-14 03:58:00,
2013-03-13 23:03:00,46.0,36.0,27.04,SW,228,6.0,7.0,66,0.00,,,-99.99,,2013-03-14 04:03:00,
2013-03-13 23:08:00,46.0,36.0,27.04,SW,234,8.0,10.0,67,0.00,,,-99.99,,2013-03-14 04:08:00,
2013-03-13 23:13:00,47.0,37.0,27.05,SW,228,8.0,10.0,67,0.00,,,-99.99,,2013-03-14 04:13:00,
2013-03-13 23:18:00,47.0,36.0,27.05,WSW,237,8.0,10.0,66,0.00,,,-99.99,,2013-03-14 04:18:00,
2013-03-13 23:23:00,47.0,37.0,27.05,WSW,250,9.0,10.0,67,0.00,,,-99.99,,2013-03-14 04:23:00,
2013-03-13 23:28:00,47.0,37.0,27.05,WSW,248,8.0,10.0,67,0.00,,,-99.99,,2013-03-14 04:28:00,
2013-03-13 23:33:00,47.0,37.0,27.05,WSW,241,9.0,11.0,68,0.00,,,-99.99,,2013-03-14 04:33:00,
2013-03-13 23:38:00,47.0,37.0,27.05,WSW,245,8.0,10.0,68,0.00,,,-99.99,,2013-03-14 04:38:00,
2013-03-13 23:43:00,47.0,37.0,27.05,WSW,240,8.0,9.0,68,0.00,,,-99.99,,2013-03-14 04:43:00,
2013-03-13 23:48:00,47.0,37.0,27.05,WSW,240,7.0,9.0,68,0.00,,,-99.99,,2013-03-14 04:48:00,
2013-03-13 23:53:00,47.0,37.0,27.05,WSW,238,8.0,10.0,68,0.00,,,-99.99,,2013-03-14 04:53:00,